Orbital elements of METEOR 2-8 DEB
| Launched | 24 March 1982 |
| Flight ended | – |
| Launch site | Plesetsk Missile and Space Complex, Russia |
| Owner | Commonwealth of Independent States (former USSR) |
| NORAD ID | 36334 |
| Date fetched |
Epoch osculation |
Inc. [°] |
Ecc. | RA asc node [hr] |
Arg Peri. [°] |
Mean anom [°] |
Mean motion [rev/day] |
Abs. mag |
| Date fetched |
Epoch osculation |
Inc. [°] |
Ecc. | RA asc node [hr] |
Arg Peri. [°] |
Mean anom [°] |
Mean motion [rev/day] |
Abs. mag |
| 2026 May 06 17:57 | 2026 May 05 12:13:49 | 82.5156 | 0.00228 | 14.6970 | 194.7836 | 165.2686 | 14.27785 | – |
| 2026 May 05 17:57 | 2026 May 05 12:13:49 | 82.5156 | 0.00228 | 14.6970 | 194.7836 | 165.2686 | 14.27785 | – |
| 2026 May 04 17:57 | 2026 Apr 28 23:48:35 | 82.5138 | 0.00218 | 15.0695 | 213.4946 | 165.2686 | 14.27785 | – |
| 2026 May 03 17:57 | 2026 Apr 28 23:48:35 | 82.5138 | 0.00218 | 15.0695 | 213.4946 | 165.2686 | 14.27785 | – |
| 2026 May 02 17:57 | 2026 Apr 28 23:48:35 | 82.5138 | 0.00218 | 15.0695 | 213.4946 | 165.2686 | 14.27785 | – |
| 2026 May 01 17:56 | 2026 Apr 28 23:48:35 | 82.5138 | 0.00218 | 15.0695 | 213.4946 | 165.2686 | 14.27785 | – |
| 2026 Apr 30 17:56 | 2026 Apr 28 23:48:35 | 82.5138 | 0.00218 | 15.0695 | 213.4946 | 165.2686 | 14.27785 | – |
| 2026 Apr 29 17:57 | 2026 Apr 23 00:50:26 | 82.5142 | 0.00209 | 15.4100 | 231.0811 | 165.2686 | 14.27785 | – |
| 2026 Apr 28 17:56 | 2026 Apr 23 00:50:26 | 82.5142 | 0.00209 | 15.4100 | 231.0811 | 165.2686 | 14.27785 | – |
| 2026 Apr 27 17:58 | 2026 Apr 23 00:50:26 | 82.5142 | 0.00209 | 15.4100 | 231.0811 | 165.2686 | 14.27785 | – |
| 2026 Apr 26 17:58 | 2026 Apr 23 00:50:26 | 82.5142 | 0.00209 | 15.4100 | 231.0811 | 165.2686 | 14.27785 | – |
| 2026 Apr 25 17:58 | 2026 Apr 23 00:50:26 | 82.5142 | 0.00209 | 15.4100 | 231.0811 | 165.2686 | 14.27785 | – |
| 2026 Apr 24 17:59 | 2026 Apr 23 00:50:26 | 82.5142 | 0.00209 | 15.4100 | 231.0811 | 165.2686 | 14.27785 | – |
| 2026 Apr 23 17:57 | 2026 Apr 18 01:24:58 | 82.5132 | 0.00198 | 15.6944 | 246.7122 | 165.2686 | 14.27785 | – |
| 2026 Apr 22 17:57 | 2026 Apr 18 01:24:58 | 82.5132 | 0.00198 | 15.6944 | 246.7122 | 165.2686 | 14.27785 | – |
| 2026 Apr 21 17:57 | 2026 Apr 18 01:24:58 | 82.5132 | 0.00198 | 15.6944 | 246.7122 | 165.2686 | 14.27785 | – |
| 2026 Apr 20 17:57 | 2026 Apr 18 01:24:58 | 82.5132 | 0.00198 | 15.6944 | 246.7122 | 165.2686 | 14.27785 | – |
| 2026 Apr 19 17:58 | 2026 Apr 18 01:24:58 | 82.5132 | 0.00198 | 15.6944 | 246.7122 | 165.2686 | 14.27785 | – |
| 2026 Apr 18 17:56 | 2026 Apr 10 15:06:59 | 82.5110 | 0.00201 | 16.1191 | 270.3711 | 165.2686 | 14.27785 | – |
| 2026 Apr 16 17:57 | 2026 Apr 10 15:06:59 | 82.5110 | 0.00201 | 16.1191 | 270.3711 | 165.2686 | 14.27785 | – |
| 2026 Apr 14 17:57 | 2026 Apr 10 15:06:59 | 82.5110 | 0.00201 | 16.1191 | 270.3711 | 165.2686 | 14.27785 | – |
| 2026 Apr 13 17:57 | 2026 Apr 10 15:06:59 | 82.5110 | 0.00201 | 16.1191 | 270.3711 | 165.2686 | 14.27785 | – |
| 2026 Apr 12 17:57 | 2026 Apr 08 16:01:03 | 82.5130 | 0.00194 | 16.2313 | 277.3343 | 165.2686 | 14.27785 | – |
| 2026 Apr 11 17:57 | 2026 Apr 08 16:01:03 | 82.5130 | 0.00194 | 16.2313 | 277.3343 | 165.2686 | 14.27785 | – |
| 2026 Apr 10 17:58 | 2026 Apr 08 16:01:03 | 82.5130 | 0.00194 | 16.2313 | 277.3343 | 165.2686 | 14.27785 | – |
| 2026 Apr 09 18:01 | 2026 Apr 08 16:01:03 | 82.5130 | 0.00194 | 16.2313 | 277.3343 | 165.2686 | 14.27785 | – |